sensor_id;sensor_type;location;lat;lon;timestamp;P1;durP1;ratioP1;P2;durP2;ratioP2
53401;SDS011;39295;45.534;20.034;2022-07-23T00:00:33;9.10;;;4.43;;
53401;SDS011;39295;45.534;20.034;2022-07-23T00:02:59;13.75;;;4.00;;
53401;SDS011;39295;45.534;20.034;2022-07-23T00:05:43;12.13;;;3.75;;
53401;SDS011;39295;45.534;20.034;2022-07-23T00:08:09;7.72;;;2.92;;
53401;SDS011;39295;45.534;20.034;2022-07-23T00:10:36;15.40;;;3.78;;
53401;SDS011;39295;45.534;20.034;2022-07-23T00:13:02;9.68;;;3.40;;
53401;SDS011;39295;45.534;20.034;2022-07-23T00:15:28;12.70;;;3.35;;
53401;SDS011;39295;45.534;20.034;2022-07-23T00:17:54;10.65;;;3.65;;
53401;SDS011;39295;45.534;20.034;2022-07-23T00:20:20;11.57;;;4.40;;
53401;SDS011;39295;45.534;20.034;2022-07-23T00:22:55;14.02;;;7.65;;
53401;SDS011;39295;45.534;20.034;2022-07-23T00:25:22;14.75;;;8.63;;
53401;SDS011;39295;45.534;20.034;2022-07-23T00:27:50;19.98;;;11.65;;
53401;SDS011;39295;45.534;20.034;2022-07-23T00:30:16;16.52;;;10.93;;
53401;SDS011;39295;45.534;20.034;2022-07-23T00:32:47;16.75;;;9.65;;
53401;SDS011;39295;45.534;20.034;2022-07-23T00:35:13;10.60;;;3.97;;
53401;SDS011;39295;45.534;20.034;2022-07-23T00:37:39;7.82;;;3.58;;
53401;SDS011;39295;45.534;20.034;2022-07-23T00:40:05;12.80;;;3.45;;
53401;SDS011;39295;45.534;20.034;2022-07-23T00:42:32;12.02;;;4.05;;
53401;SDS011;39295;45.534;20.034;2022-07-23T00:44:58;11.40;;;3.75;;
53401;SDS011;39295;45.534;20.034;2022-07-23T00:47:24;9.45;;;3.10;;
53401;SDS011;39295;45.534;20.034;2022-07-23T00:49:51;10.43;;;3.80;;
53401;SDS011;39295;45.534;20.034;2022-07-23T00:52:17;9.73;;;3.85;;
53401;SDS011;39295;45.534;20.034;2022-07-23T00:54:43;12.52;;;3.72;;
53401;SDS011;39295;45.534;20.034;2022-07-23T00:57:09;12.07;;;3.80;;
53401;SDS011;39295;45.534;20.034;2022-07-23T00:59:35;18.80;;;4.38;;
53401;SDS011;39295;45.534;20.034;2022-07-23T01:02:01;10.05;;;3.90;;
53401;SDS011;39295;45.534;20.034;2022-07-23T01:04:45;9.77;;;3.30;;
53401;SDS011;39295;45.534;20.034;2022-07-23T01:07:11;13.57;;;3.95;;
53401;SDS011;39295;45.534;20.034;2022-07-23T01:09:37;10.18;;;3.35;;
53401;SDS011;39295;45.534;20.034;2022-07-23T01:12:04;17.33;;;4.55;;
53401;SDS011;39295;45.534;20.034;2022-07-23T01:14:30;17.50;;;3.95;;
53401;SDS011;39295;45.534;20.034;2022-07-23T01:16:56;11.07;;;3.95;;
53401;SDS011;39295;45.534;20.034;2022-07-23T01:19:22;9.13;;;3.85;;
53401;SDS011;39295;45.534;20.034;2022-07-23T01:21:49;7.82;;;3.90;;
53401;SDS011;39295;45.534;20.034;2022-07-23T01:24:17;9.13;;;3.95;;
53401;SDS011;39295;45.534;20.034;2022-07-23T01:26:47;13.45;;;4.60;;
53401;SDS011;39295;45.534;20.034;2022-07-23T01:29:13;13.15;;;4.47;;
53401;SDS011;39295;45.534;20.034;2022-07-23T01:31:40;11.27;;;4.18;;
53401;SDS011;39295;45.534;20.034;2022-07-23T01:34:06;14.15;;;4.45;;
53401;SDS011;39295;45.534;20.034;2022-07-23T01:36:33;12.73;;;4.30;;
53401;SDS011;39295;45.534;20.034;2022-07-23T01:38:59;12.40;;;5.00;;
53401;SDS011;39295;45.534;20.034;2022-07-23T01:41:25;8.52;;;4.55;;
53401;SDS011;39295;45.534;20.034;2022-07-23T01:43:51;9.77;;;4.50;;
53401;SDS011;39295;45.534;20.034;2022-07-23T01:46:17;13.35;;;4.93;;
53401;SDS011;39295;45.534;20.034;2022-07-23T01:48:43;10.57;;;4.85;;
53401;SDS011;39295;45.534;20.034;2022-07-23T01:51:09;15.18;;;5.07;;
53401;SDS011;39295;45.534;20.034;2022-07-23T01:53:36;12.63;;;4.28;;
53401;SDS011;39295;45.534;20.034;2022-07-23T01:56:02;8.90;;;4.20;;
53401;SDS011;39295;45.534;20.034;2022-07-23T01:58:28;10.82;;;4.53;;
53401;SDS011;39295;45.534;20.034;2022-07-23T02:00:55;13.43;;;4.30;;
53401;SDS011;39295;45.534;20.034;2022-07-23T02:03:21;11.23;;;4.72;;
53401;SDS011;39295;45.534;20.034;2022-07-23T02:05:47;11.68;;;4.65;;
53401;SDS011;39295;45.534;20.034;2022-07-23T02:08:13;12.60;;;4.75;;
53401;SDS011;39295;45.534;20.034;2022-07-23T02:10:39;14.98;;;5.00;;
53401;SDS011;39295;45.534;20.034;2022-07-23T02:13:05;13.52;;;4.85;;
53401;SDS011;39295;45.534;20.034;2022-07-23T02:15:32;10.77;;;4.63;;
53401;SDS011;39295;45.534;20.034;2022-07-23T02:17:58;17.67;;;5.50;;
53401;SDS011;39295;45.534;20.034;2022-07-23T02:20:24;9.18;;;4.32;;
53401;SDS011;39295;45.534;20.034;2022-07-23T02:22:50;14.60;;;5.10;;
53401;SDS011;39295;45.534;20.034;2022-07-23T02:25:16;14.65;;;4.75;;
53401;SDS011;39295;45.534;20.034;2022-07-23T02:27:42;11.55;;;4.90;;
53401;SDS011;39295;45.534;20.034;2022-07-23T02:30:08;11.27;;;5.25;;
53401;SDS011;39295;45.534;20.034;2022-07-23T02:32:35;12.35;;;5.57;;
53401;SDS011;39295;45.534;20.034;2022-07-23T02:35:01;16.83;;;5.63;;
53401;SDS011;39295;45.534;20.034;2022-07-23T02:37:28;16.95;;;4.95;;
53401;SDS011;39295;45.534;20.034;2022-07-23T02:39:54;13.15;;;5.55;;
53401;SDS011;39295;45.534;20.034;2022-07-23T02:42:20;12.90;;;5.28;;
53401;SDS011;39295;45.534;20.034;2022-07-23T02:44:46;16.38;;;5.43;;
53401;SDS011;39295;45.534;20.034;2022-07-23T02:47:12;12.10;;;4.80;;
53401;SDS011;39295;45.534;20.034;2022-07-23T02:49:38;18.08;;;6.40;;
53401;SDS011;39295;45.534;20.034;2022-07-23T02:52:04;16.38;;;7.40;;
53401;SDS011;39295;45.534;20.034;2022-07-23T02:54:30;19.00;;;8.48;;
53401;SDS011;39295;45.534;20.034;2022-07-23T02:56:56;16.33;;;7.43;;
53401;SDS011;39295;45.534;20.034;2022-07-23T02:59:22;17.95;;;7.63;;
53401;SDS011;39295;45.534;20.034;2022-07-23T03:01:48;21.73;;;6.95;;
53401;SDS011;39295;45.534;20.034;2022-07-23T03:04:14;15.57;;;6.50;;
53401;SDS011;39295;45.534;20.034;2022-07-23T03:06:40;17.40;;;6.22;;
53401;SDS011;39295;45.534;20.034;2022-07-23T03:09:06;21.63;;;7.45;;
53401;SDS011;39295;45.534;20.034;2022-07-23T03:11:32;15.27;;;6.72;;
53401;SDS011;39295;45.534;20.034;2022-07-23T03:13:58;22.75;;;6.63;;
53401;SDS011;39295;45.534;20.034;2022-07-23T03:16:24;20.83;;;6.85;;
53401;SDS011;39295;45.534;20.034;2022-07-23T03:18:50;26.00;;;7.43;;
53401;SDS011;39295;45.534;20.034;2022-07-23T03:21:16;19.30;;;6.85;;
53401;SDS011;39295;45.534;20.034;2022-07-23T03:23:42;21.55;;;6.55;;
53401;SDS011;39295;45.534;20.034;2022-07-23T03:26:09;22.70;;;9.75;;
53401;SDS011;39295;45.534;20.034;2022-07-23T03:28:35;16.50;;;7.35;;
53401;SDS011;39295;45.534;20.034;2022-07-23T03:31:01;22.35;;;8.63;;
53401;SDS011;39295;45.534;20.034;2022-07-23T03:33:27;16.25;;;7.72;;
53401;SDS011;39295;45.534;20.034;2022-07-23T03:35:55;21.13;;;7.32;;
53401;SDS011;39295;45.534;20.034;2022-07-23T03:38:21;24.17;;;7.32;;
53401;SDS011;39295;45.534;20.034;2022-07-23T03:40:47;14.65;;;6.68;;
53401;SDS011;39295;45.534;20.034;2022-07-23T03:43:13;23.65;;;8.50;;
53401;SDS011;39295;45.534;20.034;2022-07-23T03:45:39;21.33;;;7.25;;
53401;SDS011;39295;45.534;20.034;2022-07-23T03:48:05;23.77;;;6.53;;
53401;SDS011;39295;45.534;20.034;2022-07-23T03:50:31;18.88;;;6.82;;
53401;SDS011;39295;45.534;20.034;2022-07-23T03:52:57;19.70;;;6.40;;
53401;SDS011;39295;45.534;20.034;2022-07-23T03:55:24;19.10;;;6.75;;
53401;SDS011;39295;45.534;20.034;2022-07-23T03:57:50;17.00;;;6.90;;
53401;SDS011;39295;45.534;20.034;2022-07-23T04:00:16;17.92;;;7.20;;
53401;SDS011;39295;45.534;20.034;2022-07-23T04:02:42;17.35;;;7.47;;
53401;SDS011;39295;45.534;20.034;2022-07-23T04:05:08;23.92;;;11.68;;
53401;SDS011;39295;45.534;20.034;2022-07-23T04:07:34;28.58;;;12.60;;
53401;SDS011;39295;45.534;20.034;2022-07-23T04:10:00;39.08;;;14.98;;
53401;SDS011;39295;45.534;20.034;2022-07-23T04:12:26;37.28;;;16.42;;
53401;SDS011;39295;45.534;20.034;2022-07-23T04:14:52;50.22;;;22.55;;
53401;SDS011;39295;45.534;20.034;2022-07-23T04:17:18;51.20;;;24.98;;
53401;SDS011;39295;45.534;20.034;2022-07-23T04:19:45;46.70;;;24.60;;
53401;SDS011;39295;45.534;20.034;2022-07-23T04:22:11;39.38;;;22.23;;
53401;SDS011;39295;45.534;20.034;2022-07-23T04:24:37;39.85;;;20.83;;
53401;SDS011;39295;45.534;20.034;2022-07-23T04:27:03;46.28;;;21.02;;
53401;SDS011;39295;45.534;20.034;2022-07-23T04:29:30;40.28;;;19.73;;
53401;SDS011;39295;45.534;20.034;2022-07-23T04:31:56;38.45;;;18.20;;
53401;SDS011;39295;45.534;20.034;2022-07-23T04:34:22;37.25;;;18.27;;
53401;SDS011;39295;45.534;20.034;2022-07-23T04:36:49;36.92;;;18.80;;
53401;SDS011;39295;45.534;20.034;2022-07-23T04:39:15;40.67;;;18.42;;
53401;SDS011;39295;45.534;20.034;2022-07-23T04:41:41;36.92;;;18.52;;
53401;SDS011;39295;45.534;20.034;2022-07-23T04:44:07;37.63;;;16.50;;
53401;SDS011;39295;45.534;20.034;2022-07-23T04:46:33;40.55;;;17.33;;
53401;SDS011;39295;45.534;20.034;2022-07-23T04:48:59;39.90;;;16.55;;
53401;SDS011;39295;45.534;20.034;2022-07-23T04:51:25;33.90;;;14.38;;
53401;SDS011;39295;45.534;20.034;2022-07-23T04:53:51;30.48;;;14.95;;
53401;SDS011;39295;45.534;20.034;2022-07-23T04:56:17;28.30;;;14.23;;
53401;SDS011;39295;45.534;20.034;2022-07-23T04:58:43;34.55;;;14.48;;
53401;SDS011;39295;45.534;20.034;2022-07-23T05:01:09;31.42;;;13.63;;
53401;SDS011;39295;45.534;20.034;2022-07-23T05:03:35;32.15;;;12.50;;
53401;SDS011;39295;45.534;20.034;2022-07-23T05:06:01;32.55;;;13.13;;
53401;SDS011;39295;45.534;20.034;2022-07-23T05:08:28;25.05;;;12.30;;
53401;SDS011;39295;45.534;20.034;2022-07-23T05:10:54;29.15;;;11.07;;
53401;SDS011;39295;45.534;20.034;2022-07-23T05:13:20;24.38;;;10.95;;
53401;SDS011;39295;45.534;20.034;2022-07-23T05:15:46;28.25;;;11.20;;
53401;SDS011;39295;45.534;20.034;2022-07-23T05:18:12;27.00;;;11.05;;
53401;SDS011;39295;45.534;20.034;2022-07-23T05:20:38;25.90;;;10.57;;
53401;SDS011;39295;45.534;20.034;2022-07-23T05:23:04;17.10;;;10.23;;
53401;SDS011;39295;45.534;20.034;2022-07-23T05:25:30;32.00;;;10.55;;
53401;SDS011;39295;45.534;20.034;2022-07-23T05:27:56;24.30;;;10.18;;
53401;SDS011;39295;45.534;20.034;2022-07-23T05:30:22;26.58;;;11.43;;
53401;SDS011;39295;45.534;20.034;2022-07-23T05:32:48;20.90;;;10.43;;
53401;SDS011;39295;45.534;20.034;2022-07-23T05:35:14;22.45;;;10.43;;
53401;SDS011;39295;45.534;20.034;2022-07-23T05:37:40;21.73;;;9.98;;
53401;SDS011;39295;45.534;20.034;2022-07-23T05:40:07;34.25;;;18.65;;
53401;SDS011;39295;45.534;20.034;2022-07-23T05:42:34;27.85;;;11.68;;
53401;SDS011;39295;45.534;20.034;2022-07-23T05:45:00;26.70;;;10.77;;
53401;SDS011;39295;45.534;20.034;2022-07-23T05:47:26;31.40;;;15.85;;
53401;SDS011;39295;45.534;20.034;2022-07-23T05:49:52;30.73;;;17.63;;
53401;SDS011;39295;45.534;20.034;2022-07-23T05:52:20;33.67;;;17.23;;
53401;SDS011;39295;45.534;20.034;2022-07-23T05:54:46;30.60;;;17.77;;
53401;SDS011;39295;45.534;20.034;2022-07-23T05:57:12;24.80;;;15.02;;
53401;SDS011;39295;45.534;20.034;2022-07-23T05:59:38;35.08;;;19.55;;
53401;SDS011;39295;45.534;20.034;2022-07-23T06:02:04;34.72;;;21.60;;
53401;SDS011;39295;45.534;20.034;2022-07-23T06:04:30;28.48;;;12.93;;
53401;SDS011;39295;45.534;20.034;2022-07-23T06:06:56;23.30;;;13.23;;
53401;SDS011;39295;45.534;20.034;2022-07-23T06:09:22;29.65;;;17.73;;
53401;SDS011;39295;45.534;20.034;2022-07-23T06:11:48;34.15;;;18.70;;
53401;SDS011;39295;45.534;20.034;2022-07-23T06:14:14;36.25;;;18.60;;
53401;SDS011;39295;45.534;20.034;2022-07-23T06:16:40;35.20;;;23.13;;
53401;SDS011;39295;45.534;20.034;2022-07-23T06:19:06;22.13;;;10.65;;
53401;SDS011;39295;45.534;20.034;2022-07-23T06:21:32;38.28;;;22.90;;
53401;SDS011;39295;45.534;20.034;2022-07-23T06:23:59;33.63;;;21.50;;
53401;SDS011;39295;45.534;20.034;2022-07-23T06:26:25;32.30;;;19.88;;
53401;SDS011;39295;45.534;20.034;2022-07-23T06:28:53;46.55;;;34.53;;
53401;SDS011;39295;45.534;20.034;2022-07-23T06:31:19;21.77;;;14.30;;
53401;SDS011;39295;45.534;20.034;2022-07-23T06:33:45;52.45;;;35.30;;
53401;SDS011;39295;45.534;20.034;2022-07-23T06:36:11;61.95;;;46.05;;
53401;SDS011;39295;45.534;20.034;2022-07-23T06:38:37;32.70;;;20.20;;
53401;SDS011;39295;45.534;20.034;2022-07-23T06:41:03;48.28;;;32.33;;
53401;SDS011;39295;45.534;20.034;2022-07-23T06:43:31;24.63;;;11.77;;
53401;SDS011;39295;45.534;20.034;2022-07-23T06:45:57;12.77;;;6.82;;
53401;SDS011;39295;45.534;20.034;2022-07-23T06:48:23;15.20;;;8.90;;
53401;SDS011;39295;45.534;20.034;2022-07-23T06:50:49;19.30;;;8.25;;
53401;SDS011;39295;45.534;20.034;2022-07-23T06:53:17;13.82;;;5.80;;
53401;SDS011;39295;45.534;20.034;2022-07-23T06:55:43;20.83;;;12.93;;
53401;SDS011;39295;45.534;20.034;2022-07-23T06:58:09;13.40;;;4.82;;
53401;SDS011;39295;45.534;20.034;2022-07-23T07:00:35;11.32;;;5.10;;
53401;SDS011;39295;45.534;20.034;2022-07-23T07:03:01;12.00;;;6.85;;
53401;SDS011;39295;45.534;20.034;2022-07-23T07:05:28;11.45;;;4.55;;
53401;SDS011;39295;45.534;20.034;2022-07-23T07:07:54;13.80;;;5.03;;
53401;SDS011;39295;45.534;20.034;2022-07-23T07:10:20;15.45;;;4.70;;
53401;SDS011;39295;45.534;20.034;2022-07-23T07:12:46;12.18;;;3.63;;
53401;SDS011;39295;45.534;20.034;2022-07-23T07:15:12;8.95;;;3.60;;
53401;SDS011;39295;45.534;20.034;2022-07-23T07:17:38;14.70;;;5.35;;
53401;SDS011;39295;45.534;20.034;2022-07-23T07:20:04;11.70;;;4.45;;
53401;SDS011;39295;45.534;20.034;2022-07-23T07:22:31;12.77;;;4.65;;
53401;SDS011;39295;45.534;20.034;2022-07-23T07:24:57;14.88;;;3.50;;
53401;SDS011;39295;45.534;20.034;2022-07-23T07:27:23;10.02;;;3.65;;
53401;SDS011;39295;45.534;20.034;2022-07-23T07:29:49;11.07;;;3.70;;
53401;SDS011;39295;45.534;20.034;2022-07-23T07:32:15;8.55;;;3.20;;
53401;SDS011;39295;45.534;20.034;2022-07-23T07:34:41;9.05;;;3.80;;
53401;SDS011;39295;45.534;20.034;2022-07-23T07:37:07;11.85;;;3.78;;
53401;SDS011;39295;45.534;20.034;2022-07-23T07:39:33;11.05;;;3.47;;
53401;SDS011;39295;45.534;20.034;2022-07-23T07:41:59;7.78;;;3.63;;
53401;SDS011;39295;45.534;20.034;2022-07-23T07:44:25;10.55;;;3.60;;
53401;SDS011;39295;45.534;20.034;2022-07-23T07:46:51;11.18;;;3.80;;
53401;SDS011;39295;45.534;20.034;2022-07-23T07:49:18;8.60;;;3.67;;
53401;SDS011;39295;45.534;20.034;2022-07-23T07:51:44;13.00;;;3.90;;
53401;SDS011;39295;45.534;20.034;2022-07-23T07:54:10;11.55;;;5.57;;
53401;SDS011;39295;45.534;20.034;2022-07-23T07:56:36;11.32;;;4.13;;
53401;SDS011;39295;45.534;20.034;2022-07-23T07:59:02;7.85;;;4.43;;
53401;SDS011;39295;45.534;20.034;2022-07-23T08:01:28;9.05;;;3.58;;
53401;SDS011;39295;45.534;20.034;2022-07-23T08:03:55;12.07;;;4.20;;
53401;SDS011;39295;45.534;20.034;2022-07-23T08:06:21;13.45;;;4.20;;
53401;SDS011;39295;45.534;20.034;2022-07-23T08:08:47;7.90;;;3.00;;
53401;SDS011;39295;45.534;20.034;2022-07-23T08:11:13;5.05;;;2.60;;
53401;SDS011;39295;45.534;20.034;2022-07-23T08:13:39;5.90;;;3.00;;
53401;SDS011;39295;45.534;20.034;2022-07-23T08:16:06;6.88;;;3.17;;
53401;SDS011;39295;45.534;20.034;2022-07-23T08:18:32;8.20;;;3.00;;
53401;SDS011;39295;45.534;20.034;2022-07-23T08:20:58;7.25;;;2.78;;
53401;SDS011;39295;45.534;20.034;2022-07-23T08:23:24;5.93;;;2.97;;
53401;SDS011;39295;45.534;20.034;2022-07-23T08:25:50;8.02;;;3.00;;
53401;SDS011;39295;45.534;20.034;2022-07-23T08:28:16;7.80;;;3.35;;
53401;SDS011;39295;45.534;20.034;2022-07-23T08:30:43;8.68;;;3.33;;
53401;SDS011;39295;45.534;20.034;2022-07-23T08:33:13;15.52;;;3.92;;
53401;SDS011;39295;45.534;20.034;2022-07-23T08:35:40;7.88;;;3.00;;
53401;SDS011;39295;45.534;20.034;2022-07-23T08:38:08;9.32;;;3.08;;
53401;SDS011;39295;45.534;20.034;2022-07-23T08:40:36;10.10;;;3.03;;
53401;SDS011;39295;45.534;20.034;2022-07-23T08:43:04;5.78;;;3.10;;
53401;SDS011;39295;45.534;20.034;2022-07-23T08:45:31;10.20;;;3.20;;
53401;SDS011;39295;45.534;20.034;2022-07-23T08:48:00;11.13;;;3.25;;
53401;SDS011;39295;45.534;20.034;2022-07-23T08:50:27;10.38;;;3.17;;
53401;SDS011;39295;45.534;20.034;2022-07-23T08:52:53;9.98;;;3.50;;
53401;SDS011;39295;45.534;20.034;2022-07-23T08:55:21;7.43;;;3.20;;
53401;SDS011;39295;45.534;20.034;2022-07-23T09:10:19;8.13;;;3.03;;
53401;SDS011;39295;45.534;20.034;2022-07-23T09:12:45;12.65;;;3.22;;
53401;SDS011;39295;45.534;20.034;2022-07-23T09:15:11;8.35;;;3.33;;
53401;SDS011;39295;45.534;20.034;2022-07-23T09:17:40;8.90;;;3.35;;
53401;SDS011;39295;45.534;20.034;2022-07-23T09:20:10;9.98;;;3.85;;
53401;SDS011;39295;45.534;20.034;2022-07-23T09:22:36;9.45;;;3.80;;
53401;SDS011;39295;45.534;20.034;2022-07-23T09:30:33;9.90;;;4.47;;
53401;SDS011;39295;45.534;20.034;2022-07-23T09:35:55;12.55;;;4.28;;
53401;SDS011;39295;45.534;20.034;2022-07-23T09:38:22;11.35;;;4.10;;
53401;SDS011;39295;45.534;20.034;2022-07-23T09:41:05;16.20;;;5.00;;
53401;SDS011;39295;45.534;20.034;2022-07-23T09:43:32;11.88;;;4.93;;
53401;SDS011;39295;45.534;20.034;2022-07-23T09:46:20;17.15;;;4.60;;
53401;SDS011;39295;45.534;20.034;2022-07-23T09:48:45;12.02;;;3.85;;
53401;SDS011;39295;45.534;20.034;2022-07-23T09:51:11;10.25;;;4.40;;
53401;SDS011;39295;45.534;20.034;2022-07-23T09:53:40;12.07;;;4.03;;
53401;SDS011;39295;45.534;20.034;2022-07-23T09:56:07;10.75;;;4.18;;
53401;SDS011;39295;45.534;20.034;2022-07-23T09:58:33;13.93;;;4.15;;
53401;SDS011;39295;45.534;20.034;2022-07-23T10:01:08;13.73;;;4.15;;
53401;SDS011;39295;45.534;20.034;2022-07-23T10:03:34;11.43;;;4.07;;
53401;SDS011;39295;45.534;20.034;2022-07-23T10:06:00;11.10;;;3.72;;
53401;SDS011;39295;45.534;20.034;2022-07-23T10:08:27;13.90;;;4.35;;
53401;SDS011;39295;45.534;20.034;2022-07-23T10:10:54;11.23;;;3.65;;
53401;SDS011;39295;45.534;20.034;2022-07-23T10:13:20;8.45;;;4.10;;
53401;SDS011;39295;45.534;20.034;2022-07-23T10:15:46;11.27;;;6.22;;
53401;SDS011;39295;45.534;20.034;2022-07-23T10:18:12;9.70;;;6.25;;
53401;SDS011;39295;45.534;20.034;2022-07-23T10:20:39;11.90;;;5.95;;
53401;SDS011;39295;45.534;20.034;2022-07-23T10:23:28;12.50;;;4.22;;
53401;SDS011;39295;45.534;20.034;2022-07-23T10:36:44;7.55;;;4.03;;
53401;SDS011;39295;45.534;20.034;2022-07-23T10:41:42;7.90;;;3.50;;
53401;SDS011;39295;45.534;20.034;2022-07-23T10:44:12;14.15;;;4.38;;
53401;SDS011;39295;45.534;20.034;2022-07-23T10:46:55;8.45;;;3.65;;
53401;SDS011;39295;45.534;20.034;2022-07-23T10:49:30;8.55;;;3.60;;
53401;SDS011;39295;45.534;20.034;2022-07-23T10:54:41;10.48;;;4.05;;
53401;SDS011;39295;45.534;20.034;2022-07-23T10:57:07;8.48;;;3.90;;
53401;SDS011;39295;45.534;20.034;2022-07-23T11:02:21;8.55;;;3.90;;
53401;SDS011;39295;45.534;20.034;2022-07-23T11:04:51;12.68;;;4.40;;
53401;SDS011;39295;45.534;20.034;2022-07-23T11:07:18;10.27;;;4.80;;
53401;SDS011;39295;45.534;20.034;2022-07-23T11:09:44;12.85;;;4.10;;
53401;SDS011;39295;45.534;20.034;2022-07-23T11:17:23;12.77;;;4.10;;
53401;SDS011;39295;45.534;20.034;2022-07-23T11:28:14;12.23;;;4.50;;
53401;SDS011;39295;45.534;20.034;2022-07-23T11:30:42;9.00;;;4.38;;
53401;SDS011;39295;45.534;20.034;2022-07-23T11:35:35;10.27;;;4.45;;
53401;SDS011;39295;45.534;20.034;2022-07-23T11:38:15;7.07;;;4.00;;
53401;SDS011;39295;45.534;20.034;2022-07-23T11:40:43;13.15;;;4.30;;
53401;SDS011;39295;45.534;20.034;2022-07-23T11:43:10;8.70;;;4.13;;
53401;SDS011;39295;45.534;20.034;2022-07-23T11:45:37;14.73;;;4.18;;
53401;SDS011;39295;45.534;20.034;2022-07-23T11:48:05;11.68;;;3.95;;
53401;SDS011;39295;45.534;20.034;2022-07-23T11:50:31;13.98;;;4.38;;
53401;SDS011;39295;45.534;20.034;2022-07-23T11:52:57;9.82;;;4.70;;
53401;SDS011;39295;45.534;20.034;2022-07-23T11:55:23;5.72;;;3.50;;
53401;SDS011;39295;45.534;20.034;2022-07-23T11:57:51;9.27;;;4.05;;
53401;SDS011;39295;45.534;20.034;2022-07-23T12:00:18;7.60;;;4.25;;
53401;SDS011;39295;45.534;20.034;2022-07-23T12:02:48;13.93;;;3.70;;
53401;SDS011;39295;45.534;20.034;2022-07-23T12:05:15;8.23;;;4.28;;
53401;SDS011;39295;45.534;20.034;2022-07-23T12:07:42;10.32;;;4.07;;
53401;SDS011;39295;45.534;20.034;2022-07-23T12:12:42;7.10;;;3.90;;
53401;SDS011;39295;45.534;20.034;2022-07-23T12:15:09;9.77;;;4.00;;
53401;SDS011;39295;45.534;20.034;2022-07-23T12:17:37;8.13;;;4.03;;
53401;SDS011;39295;45.534;20.034;2022-07-23T12:20:04;7.53;;;3.28;;
53401;SDS011;39295;45.534;20.034;2022-07-23T12:22:38;7.63;;;4.00;;
53401;SDS011;39295;45.534;20.034;2022-07-23T12:25:09;7.28;;;3.67;;
53401;SDS011;39295;45.534;20.034;2022-07-23T12:27:35;7.80;;;4.20;;
53401;SDS011;39295;45.534;20.034;2022-07-23T12:32:43;7.93;;;3.60;;
53401;SDS011;39295;45.534;20.034;2022-07-23T12:35:10;6.28;;;3.90;;
53401;SDS011;39295;45.534;20.034;2022-07-23T12:37:39;5.72;;;3.38;;
53401;SDS011;39295;45.534;20.034;2022-07-23T12:40:18;5.32;;;3.42;;
53401;SDS011;39295;45.534;20.034;2022-07-23T12:42:49;6.20;;;3.38;;
53401;SDS011;39295;45.534;20.034;2022-07-23T12:45:15;9.82;;;3.53;;
53401;SDS011;39295;45.534;20.034;2022-07-23T12:48:04;6.07;;;3.25;;
53401;SDS011;39295;45.534;20.034;2022-07-23T12:50:34;5.97;;;3.50;;
53401;SDS011;39295;45.534;20.034;2022-07-23T12:55:29;5.75;;;3.25;;
53401;SDS011;39295;45.534;20.034;2022-07-23T12:58:09;8.82;;;3.50;;
53401;SDS011;39295;45.534;20.034;2022-07-23T13:00:49;4.40;;;3.20;;
53401;SDS011;39295;45.534;20.034;2022-07-23T13:03:22;8.80;;;3.55;;
53401;SDS011;39295;45.534;20.034;2022-07-23T13:05:48;8.43;;;3.97;;
53401;SDS011;39295;45.534;20.034;2022-07-23T13:08:15;9.43;;;3.88;;
53401;SDS011;39295;45.534;20.034;2022-07-23T13:10:41;5.75;;;4.30;;
53401;SDS011;39295;45.534;20.034;2022-07-23T13:13:10;7.93;;;4.35;;
53401;SDS011;39295;45.534;20.034;2022-07-23T13:15:36;8.98;;;4.30;;
53401;SDS011;39295;45.534;20.034;2022-07-23T13:18:02;11.00;;;4.30;;
53401;SDS011;39295;45.534;20.034;2022-07-23T13:20:28;6.97;;;3.75;;
53401;SDS011;39295;45.534;20.034;2022-07-23T13:22:56;8.23;;;4.35;;
53401;SDS011;39295;45.534;20.034;2022-07-23T13:25:22;5.65;;;3.50;;
53401;SDS011;39295;45.534;20.034;2022-07-23T13:27:48;6.43;;;3.33;;
53401;SDS011;39295;45.534;20.034;2022-07-23T13:30:14;6.07;;;3.58;;
53401;SDS011;39295;45.534;20.034;2022-07-23T13:32:41;8.23;;;3.70;;
53401;SDS011;39295;45.534;20.034;2022-07-23T13:35:08;8.50;;;3.95;;
53401;SDS011;39295;45.534;20.034;2022-07-23T13:37:34;7.03;;;3.60;;
53401;SDS011;39295;45.534;20.034;2022-07-23T13:40:01;7.07;;;3.55;;
53401;SDS011;39295;45.534;20.034;2022-07-23T13:42:27;11.43;;;3.78;;
53401;SDS011;39295;45.534;20.034;2022-07-23T13:44:53;8.18;;;4.10;;
53401;SDS011;39295;45.534;20.034;2022-07-23T13:47:19;7.03;;;3.60;;
53401;SDS011;39295;45.534;20.034;2022-07-23T13:49:45;7.40;;;4.45;;
53401;SDS011;39295;45.534;20.034;2022-07-23T13:52:11;9.45;;;4.22;;
53401;SDS011;39295;45.534;20.034;2022-07-23T13:54:37;6.28;;;3.85;;
53401;SDS011;39295;45.534;20.034;2022-07-23T13:57:03;7.05;;;4.10;;
53401;SDS011;39295;45.534;20.034;2022-07-23T13:59:29;4.20;;;3.60;;
53401;SDS011;39295;45.534;20.034;2022-07-23T14:01:55;8.10;;;4.15;;
53401;SDS011;39295;45.534;20.034;2022-07-23T14:04:21;6.22;;;4.00;;
53401;SDS011;39295;45.534;20.034;2022-07-23T14:06:48;7.30;;;3.75;;
53401;SDS011;39295;45.534;20.034;2022-07-23T14:09:14;12.32;;;4.38;;
53401;SDS011;39295;45.534;20.034;2022-07-23T14:11:40;6.53;;;4.10;;
53401;SDS011;39295;45.534;20.034;2022-07-23T14:14:06;7.50;;;3.45;;
53401;SDS011;39295;45.534;20.034;2022-07-23T14:16:32;8.95;;;4.00;;
53401;SDS011;39295;45.534;20.034;2022-07-23T14:18:58;7.93;;;4.40;;
53401;SDS011;39295;45.534;20.034;2022-07-23T14:21:24;9.60;;;4.32;;
53401;SDS011;39295;45.534;20.034;2022-07-23T14:23:50;8.68;;;3.78;;
53401;SDS011;39295;45.534;20.034;2022-07-23T14:26:16;6.70;;;3.63;;
53401;SDS011;39295;45.534;20.034;2022-07-23T14:28:42;8.30;;;4.50;;
53401;SDS011;39295;45.534;20.034;2022-07-23T14:31:08;8.80;;;4.45;;
53401;SDS011;39295;45.534;20.034;2022-07-23T14:33:34;7.03;;;4.30;;
53401;SDS011;39295;45.534;20.034;2022-07-23T14:36:00;13.15;;;4.53;;
53401;SDS011;39295;45.534;20.034;2022-07-23T14:38:26;10.52;;;4.15;;
53401;SDS011;39295;45.534;20.034;2022-07-23T14:40:52;8.02;;;4.35;;
53401;SDS011;39295;45.534;20.034;2022-07-23T14:43:18;7.95;;;4.00;;
53401;SDS011;39295;45.534;20.034;2022-07-23T14:45:44;7.13;;;4.20;;
53401;SDS011;39295;45.534;20.034;2022-07-23T14:48:10;10.05;;;3.80;;
53401;SDS011;39295;45.534;20.034;2022-07-23T14:50:36;7.15;;;4.40;;
53401;SDS011;39295;45.534;20.034;2022-07-23T14:53:02;7.95;;;4.00;;
53401;SDS011;39295;45.534;20.034;2022-07-23T14:55:30;7.60;;;4.03;;
53401;SDS011;39295;45.534;20.034;2022-07-23T14:57:56;9.65;;;3.83;;
53401;SDS011;39295;45.534;20.034;2022-07-23T15:00:22;7.00;;;4.30;;
53401;SDS011;39295;45.534;20.034;2022-07-23T15:02:48;11.20;;;3.78;;
53401;SDS011;39295;45.534;20.034;2022-07-23T15:05:14;9.02;;;3.92;;
53401;SDS011;39295;45.534;20.034;2022-07-23T15:07:40;6.43;;;4.28;;
53401;SDS011;39295;45.534;20.034;2022-07-23T15:10:07;6.97;;;4.03;;
53401;SDS011;39295;45.534;20.034;2022-07-23T15:12:33;6.97;;;3.80;;
53401;SDS011;39295;45.534;20.034;2022-07-23T15:14:59;10.95;;;5.25;;
53401;SDS011;39295;45.534;20.034;2022-07-23T15:17:25;8.73;;;4.22;;
53401;SDS011;39295;45.534;20.034;2022-07-23T15:19:51;6.85;;;4.13;;
53401;SDS011;39295;45.534;20.034;2022-07-23T15:22:17;6.28;;;4.05;;
53401;SDS011;39295;45.534;20.034;2022-07-23T15:24:43;10.80;;;5.65;;